sensor_id;sensor_type;location;lat;lon;timestamp;temperature;humidity
11239;DHT22;5677;48.488;13.436;2024-01-11T00:02:06;12.60;46.50
11239;DHT22;5677;48.488;13.436;2024-01-11T00:04:33;12.60;46.50
11239;DHT22;5677;48.488;13.436;2024-01-11T00:07:00;12.50;46.50
11239;DHT22;5677;48.488;13.436;2024-01-11T00:09:28;12.60;46.50
11239;DHT22;5677;48.488;13.436;2024-01-11T00:11:55;12.60;46.40
11239;DHT22;5677;48.488;13.436;2024-01-11T00:14:21;12.60;46.50
11239;DHT22;5677;48.488;13.436;2024-01-11T00:16:48;12.50;46.50
11239;DHT22;5677;48.488;13.436;2024-01-11T00:19:15;12.50;46.50
11239;DHT22;5677;48.488;13.436;2024-01-11T00:21:42;12.50;46.50
11239;DHT22;5677;48.488;13.436;2024-01-11T00:24:08;12.50;46.50
11239;DHT22;5677;48.488;13.436;2024-01-11T00:26:36;12.50;46.50
11239;DHT22;5677;48.488;13.436;2024-01-11T00:29:03;12.50;46.50
11239;DHT22;5677;48.488;13.436;2024-01-11T00:31:30;12.50;46.50
11239;DHT22;5677;48.488;13.436;2024-01-11T00:33:57;12.50;46.50
11239;DHT22;5677;48.488;13.436;2024-01-11T00:36:23;12.50;46.50
11239;DHT22;5677;48.488;13.436;2024-01-11T00:38:50;12.50;46.50
11239;DHT22;5677;48.488;13.436;2024-01-11T00:41:17;12.50;46.50
11239;DHT22;5677;48.488;13.436;2024-01-11T00:43:45;12.50;46.50
11239;DHT22;5677;48.488;13.436;2024-01-11T00:46:12;12.50;46.50
11239;DHT22;5677;48.488;13.436;2024-01-11T00:48:39;12.40;46.40
11239;DHT22;5677;48.488;13.436;2024-01-11T00:51:06;12.40;46.40
11239;DHT22;5677;48.488;13.436;2024-01-11T00:53:33;12.40;46.40
11239;DHT22;5677;48.488;13.436;2024-01-11T00:55:59;12.40;46.40
11239;DHT22;5677;48.488;13.436;2024-01-11T00:58:26;12.40;46.40
11239;DHT22;5677;48.488;13.436;2024-01-11T01:00:54;12.40;46.40
11239;DHT22;5677;48.488;13.436;2024-01-11T01:03:21;12.40;46.40
11239;DHT22;5677;48.488;13.436;2024-01-11T01:05:48;12.40;46.40
11239;DHT22;5677;48.488;13.436;2024-01-11T01:08:15;12.40;46.40
11239;DHT22;5677;48.488;13.436;2024-01-11T01:10:42;12.40;46.40
11239;DHT22;5677;48.488;13.436;2024-01-11T01:13:08;12.40;46.40
11239;DHT22;5677;48.488;13.436;2024-01-11T01:15:35;12.40;46.40
11239;DHT22;5677;48.488;13.436;2024-01-11T01:18:03;12.40;46.40
11239;DHT22;5677;48.488;13.436;2024-01-11T01:20:31;12.40;46.40
11239;DHT22;5677;48.488;13.436;2024-01-11T01:22:58;12.40;46.40
11239;DHT22;5677;48.488;13.436;2024-01-11T01:25:24;12.30;46.40
11239;DHT22;5677;48.488;13.436;2024-01-11T01:27:51;12.40;46.40
11239;DHT22;5677;48.488;13.436;2024-01-11T01:30:18;12.40;46.40
11239;DHT22;5677;48.488;13.436;2024-01-11T01:32:45;12.30;46.50
11239;DHT22;5677;48.488;13.436;2024-01-11T01:35:13;12.30;46.50
11239;DHT22;5677;48.488;13.436;2024-01-11T01:37:40;12.30;46.50
11239;DHT22;5677;48.488;13.436;2024-01-11T01:40:07;12.30;46.50
11239;DHT22;5677;48.488;13.436;2024-01-11T01:42:35;12.30;46.50
11239;DHT22;5677;48.488;13.436;2024-01-11T01:45:02;12.30;46.50
11239;DHT22;5677;48.488;13.436;2024-01-11T01:47:29;12.30;46.50
11239;DHT22;5677;48.488;13.436;2024-01-11T01:49:56;12.30;46.50
11239;DHT22;5677;48.488;13.436;2024-01-11T01:52:24;12.30;46.50
11239;DHT22;5677;48.488;13.436;2024-01-11T01:54:51;12.30;46.50
11239;DHT22;5677;48.488;13.436;2024-01-11T01:57:19;12.30;46.50
11239;DHT22;5677;48.488;13.436;2024-01-11T01:59:49;12.30;46.50
11239;DHT22;5677;48.488;13.436;2024-01-11T02:02:16;12.30;46.50
11239;DHT22;5677;48.488;13.436;2024-01-11T02:04:43;12.30;46.50
11239;DHT22;5677;48.488;13.436;2024-01-11T02:07:10;12.30;46.60
11239;DHT22;5677;48.488;13.436;2024-01-11T02:09:40;12.30;46.50
11239;DHT22;5677;48.488;13.436;2024-01-11T02:12:06;12.20;46.50
11239;DHT22;5677;48.488;13.436;2024-01-11T02:14:37;12.20;46.50
11239;DHT22;5677;48.488;13.436;2024-01-11T02:17:04;12.20;46.50
11239;DHT22;5677;48.488;13.436;2024-01-11T02:19:31;12.20;46.50
11239;DHT22;5677;48.488;13.436;2024-01-11T02:22:02;12.20;46.50
11239;DHT22;5677;48.488;13.436;2024-01-11T02:24:33;12.20;46.50
11239;DHT22;5677;48.488;13.436;2024-01-11T02:27:00;12.20;46.50
11239;DHT22;5677;48.488;13.436;2024-01-11T02:29:28;12.20;46.50
11239;DHT22;5677;48.488;13.436;2024-01-11T02:31:55;12.20;46.50
11239;DHT22;5677;48.488;13.436;2024-01-11T02:34:22;12.20;46.50
11239;DHT22;5677;48.488;13.436;2024-01-11T02:36:50;12.20;46.50
11239;DHT22;5677;48.488;13.436;2024-01-11T02:39:19;12.20;46.50
11239;DHT22;5677;48.488;13.436;2024-01-11T02:41:47;12.20;47.20
11239;DHT22;5677;48.488;13.436;2024-01-11T02:44:16;12.20;46.50
11239;DHT22;5677;48.488;13.436;2024-01-11T02:46:43;12.20;46.50
11239;DHT22;5677;48.488;13.436;2024-01-11T02:49:09;12.10;46.60
11239;DHT22;5677;48.488;13.436;2024-01-11T02:51:36;12.20;46.60
11239;DHT22;5677;48.488;13.436;2024-01-11T02:54:02;12.20;46.60
11239;DHT22;5677;48.488;13.436;2024-01-11T02:56:29;12.20;46.60
11239;DHT22;5677;48.488;13.436;2024-01-11T02:58:57;12.10;46.50
11239;DHT22;5677;48.488;13.436;2024-01-11T03:01:24;12.10;46.60
11239;DHT22;5677;48.488;13.436;2024-01-11T03:03:50;12.10;46.60
11239;DHT22;5677;48.488;13.436;2024-01-11T03:06:18;12.10;46.60
11239;DHT22;5677;48.488;13.436;2024-01-11T03:08:47;12.10;46.70
11239;DHT22;5677;48.488;13.436;2024-01-11T03:11:14;12.10;46.70
11239;DHT22;5677;48.488;13.436;2024-01-11T03:13:41;12.10;46.70
11239;DHT22;5677;48.488;13.436;2024-01-11T03:16:09;12.10;46.70
11239;DHT22;5677;48.488;13.436;2024-01-11T03:18:36;12.10;46.70
11239;DHT22;5677;48.488;13.436;2024-01-11T03:21:03;12.10;46.70
11239;DHT22;5677;48.488;13.436;2024-01-11T03:23:30;12.10;46.70
11239;DHT22;5677;48.488;13.436;2024-01-11T03:25:57;12.10;46.70
11239;DHT22;5677;48.488;13.436;2024-01-11T03:28:23;12.10;46.70
11239;DHT22;5677;48.488;13.436;2024-01-11T03:30:50;12.10;46.70
11239;DHT22;5677;48.488;13.436;2024-01-11T03:33:18;12.00;46.60
11239;DHT22;5677;48.488;13.436;2024-01-11T03:35:45;12.00;46.60
11239;DHT22;5677;48.488;13.436;2024-01-11T03:38:12;12.00;46.60
11239;DHT22;5677;48.488;13.436;2024-01-11T03:40:38;12.10;46.70
11239;DHT22;5677;48.488;13.436;2024-01-11T03:43:05;12.00;46.70
11239;DHT22;5677;48.488;13.436;2024-01-11T03:45:32;12.00;46.70
11239;DHT22;5677;48.488;13.436;2024-01-11T03:47:59;12.00;46.70
11239;DHT22;5677;48.488;13.436;2024-01-11T03:50:27;12.00;46.70
11239;DHT22;5677;48.488;13.436;2024-01-11T03:52:54;12.00;46.70
11239;DHT22;5677;48.488;13.436;2024-01-11T03:55:20;12.00;46.80
11239;DHT22;5677;48.488;13.436;2024-01-11T03:57:47;12.00;46.80
11239;DHT22;5677;48.488;13.436;2024-01-11T04:00:15;12.00;46.80
11239;DHT22;5677;48.488;13.436;2024-01-11T04:02:41;12.00;46.80
11239;DHT22;5677;48.488;13.436;2024-01-11T04:05:08;12.00;46.80
11239;DHT22;5677;48.488;13.436;2024-01-11T04:07:36;11.90;46.80
11239;DHT22;5677;48.488;13.436;2024-01-11T04:10:04;12.00;46.80
11239;DHT22;5677;48.488;13.436;2024-01-11T04:12:31;12.00;46.80
11239;DHT22;5677;48.488;13.436;2024-01-11T04:14:57;11.90;46.80
11239;DHT22;5677;48.488;13.436;2024-01-11T04:17:24;11.90;46.80
11239;DHT22;5677;48.488;13.436;2024-01-11T04:19:51;11.90;46.80
11239;DHT22;5677;48.488;13.436;2024-01-11T04:22:18;11.90;46.80
11239;DHT22;5677;48.488;13.436;2024-01-11T04:24:46;11.90;46.90
11239;DHT22;5677;48.488;13.436;2024-01-11T04:27:13;11.90;46.90
11239;DHT22;5677;48.488;13.436;2024-01-11T04:29:39;11.90;46.90
11239;DHT22;5677;48.488;13.436;2024-01-11T04:32:06;11.90;46.90
11239;DHT22;5677;48.488;13.436;2024-01-11T04:34:33;11.90;46.90
11239;DHT22;5677;48.488;13.436;2024-01-11T04:37:00;11.90;47.00
11239;DHT22;5677;48.488;13.436;2024-01-11T04:39:26;11.90;47.00
11239;DHT22;5677;48.488;13.436;2024-01-11T04:41:54;11.90;47.00
11239;DHT22;5677;48.488;13.436;2024-01-11T04:44:21;11.90;47.00
11239;DHT22;5677;48.488;13.436;2024-01-11T04:46:48;11.90;47.00
11239;DHT22;5677;48.488;13.436;2024-01-11T04:49:14;11.90;47.00
11239;DHT22;5677;48.488;13.436;2024-01-11T04:51:41;11.90;47.00
11239;DHT22;5677;48.488;13.436;2024-01-11T04:54:08;11.90;47.00
11239;DHT22;5677;48.488;13.436;2024-01-11T04:56:35;11.90;47.00
11239;DHT22;5677;48.488;13.436;2024-01-11T04:59:03;11.90;47.00
11239;DHT22;5677;48.488;13.436;2024-01-11T05:01:29;11.80;47.00
11239;DHT22;5677;48.488;13.436;2024-01-11T05:03:56;11.80;46.90
11239;DHT22;5677;48.488;13.436;2024-01-11T05:06:23;11.80;46.90
11239;DHT22;5677;48.488;13.436;2024-01-11T05:08:50;11.80;47.00
11239;DHT22;5677;48.488;13.436;2024-01-11T05:11:18;11.80;47.00
11239;DHT22;5677;48.488;13.436;2024-01-11T05:13:45;11.80;47.00
11239;DHT22;5677;48.488;13.436;2024-01-11T05:16:21;11.80;47.00
11239;DHT22;5677;48.488;13.436;2024-01-11T05:18:49;11.80;47.00
11239;DHT22;5677;48.488;13.436;2024-01-11T05:21:15;11.80;47.00
11239;DHT22;5677;48.488;13.436;2024-01-11T05:23:42;11.80;47.00
11239;DHT22;5677;48.488;13.436;2024-01-11T05:26:09;11.80;47.00
11239;DHT22;5677;48.488;13.436;2024-01-11T05:28:36;11.80;47.00
11239;DHT22;5677;48.488;13.436;2024-01-11T05:31:06;11.80;47.10
11239;DHT22;5677;48.488;13.436;2024-01-11T05:33:35;11.80;47.10
11239;DHT22;5677;48.488;13.436;2024-01-11T05:36:02;11.80;47.10
11239;DHT22;5677;48.488;13.436;2024-01-11T05:38:29;11.80;47.10
11239;DHT22;5677;48.488;13.436;2024-01-11T05:40:56;11.80;47.10
11239;DHT22;5677;48.488;13.436;2024-01-11T05:43:23;11.80;47.10
11239;DHT22;5677;48.488;13.436;2024-01-11T05:45:50;11.70;47.10
11239;DHT22;5677;48.488;13.436;2024-01-11T05:48:17;11.70;46.90
11239;DHT22;5677;48.488;13.436;2024-01-11T05:50:46;11.70;46.70
11239;DHT22;5677;48.488;13.436;2024-01-11T05:53:13;11.70;46.70
11239;DHT22;5677;48.488;13.436;2024-01-11T05:55:40;11.70;46.70
11239;DHT22;5677;48.488;13.436;2024-01-11T05:58:06;11.70;46.70
11239;DHT22;5677;48.488;13.436;2024-01-11T06:00:33;11.70;46.70
11239;DHT22;5677;48.488;13.436;2024-01-11T06:03:00;11.70;46.90
11239;DHT22;5677;48.488;13.436;2024-01-11T06:05:27;11.70;46.90
11239;DHT22;5677;48.488;13.436;2024-01-11T06:07:55;11.70;47.00
11239;DHT22;5677;48.488;13.436;2024-01-11T06:10:22;11.70;47.00
11239;DHT22;5677;48.488;13.436;2024-01-11T06:12:49;11.70;47.10
11239;DHT22;5677;48.488;13.436;2024-01-11T06:15:15;11.70;47.00
11239;DHT22;5677;48.488;13.436;2024-01-11T06:17:42;11.70;47.00
11239;DHT22;5677;48.488;13.436;2024-01-11T06:20:10;11.80;47.00
11239;DHT22;5677;48.488;13.436;2024-01-11T06:22:37;11.80;47.00
11239;DHT22;5677;48.488;13.436;2024-01-11T06:25:05;11.70;47.00
11239;DHT22;5677;48.488;13.436;2024-01-11T06:27:32;11.80;47.00
11239;DHT22;5677;48.488;13.436;2024-01-11T06:29:59;11.80;47.00
11239;DHT22;5677;48.488;13.436;2024-01-11T06:32:26;11.70;47.00
11239;DHT22;5677;48.488;13.436;2024-01-11T06:34:52;11.70;47.00
11239;DHT22;5677;48.488;13.436;2024-01-11T06:37:19;11.80;47.00
11239;DHT22;5677;48.488;13.436;2024-01-11T06:39:46;11.70;46.90
11239;DHT22;5677;48.488;13.436;2024-01-11T06:42:14;11.80;47.00
11239;DHT22;5677;48.488;13.436;2024-01-11T06:44:41;11.70;47.00
11239;DHT22;5677;48.488;13.436;2024-01-11T06:47:07;11.80;47.10
11239;DHT22;5677;48.488;13.436;2024-01-11T06:49:37;11.80;47.00
11239;DHT22;5677;48.488;13.436;2024-01-11T06:52:04;11.80;47.10
11239;DHT22;5677;48.488;13.436;2024-01-11T06:54:31;11.80;47.00
11239;DHT22;5677;48.488;13.436;2024-01-11T06:56:58;11.80;47.00
11239;DHT22;5677;48.488;13.436;2024-01-11T06:59:26;11.80;47.00
11239;DHT22;5677;48.488;13.436;2024-01-11T07:01:53;11.80;47.00
11239;DHT22;5677;48.488;13.436;2024-01-11T07:04:20;11.80;47.00
11239;DHT22;5677;48.488;13.436;2024-01-11T07:06:47;11.80;47.00
11239;DHT22;5677;48.488;13.436;2024-01-11T07:09:14;11.80;46.90
11239;DHT22;5677;48.488;13.436;2024-01-11T07:11:42;11.80;47.00
11239;DHT22;5677;48.488;13.436;2024-01-11T07:14:09;11.80;46.90
11239;DHT22;5677;48.488;13.436;2024-01-11T07:16:37;11.80;47.00
11239;DHT22;5677;48.488;13.436;2024-01-11T07:19:04;11.80;46.90
11239;DHT22;5677;48.488;13.436;2024-01-11T07:21:30;11.80;46.90
11239;DHT22;5677;48.488;13.436;2024-01-11T07:23:57;11.80;46.90
11239;DHT22;5677;48.488;13.436;2024-01-11T07:26:24;11.80;46.90
11239;DHT22;5677;48.488;13.436;2024-01-11T07:28:51;11.80;46.90
11239;DHT22;5677;48.488;13.436;2024-01-11T07:31:20;11.80;46.80
11239;DHT22;5677;48.488;13.436;2024-01-11T07:33:48;11.80;46.90
11239;DHT22;5677;48.488;13.436;2024-01-11T07:36:15;11.80;46.80
11239;DHT22;5677;48.488;13.436;2024-01-11T07:38:42;11.80;46.80
11239;DHT22;5677;48.488;13.436;2024-01-11T07:41:09;11.80;46.80
11239;DHT22;5677;48.488;13.436;2024-01-11T07:43:36;11.80;46.80
11239;DHT22;5677;48.488;13.436;2024-01-11T07:46:03;11.80;46.80
11239;DHT22;5677;48.488;13.436;2024-01-11T07:48:31;11.90;46.90
11239;DHT22;5677;48.488;13.436;2024-01-11T07:50:59;11.90;46.80
11239;DHT22;5677;48.488;13.436;2024-01-11T07:53:26;11.90;46.90
11239;DHT22;5677;48.488;13.436;2024-01-11T07:55:53;11.90;46.80
11239;DHT22;5677;48.488;13.436;2024-01-11T07:58:20;11.90;46.80
11239;DHT22;5677;48.488;13.436;2024-01-11T08:00:47;11.90;46.80
11239;DHT22;5677;48.488;13.436;2024-01-11T08:03:14;11.90;46.60
11239;DHT22;5677;48.488;13.436;2024-01-11T08:05:41;12.00;46.60
11239;DHT22;5677;48.488;13.436;2024-01-11T08:08:10;12.00;46.50
11239;DHT22;5677;48.488;13.436;2024-01-11T08:10:36;12.10;46.60
11239;DHT22;5677;48.488;13.436;2024-01-11T08:13:03;12.10;46.50
11239;DHT22;5677;48.488;13.436;2024-01-11T08:15:30;12.10;46.40
11239;DHT22;5677;48.488;13.436;2024-01-11T08:17:57;12.10;46.30
11239;DHT22;5677;48.488;13.436;2024-01-11T08:20:24;12.20;46.20
11239;DHT22;5677;48.488;13.436;2024-01-11T08:22:50;12.20;46.10
11239;DHT22;5677;48.488;13.436;2024-01-11T08:25:18;12.20;46.00
11239;DHT22;5677;48.488;13.436;2024-01-11T08:27:45;12.30;46.00
11239;DHT22;5677;48.488;13.436;2024-01-11T08:30:12;12.30;45.80
11239;DHT22;5677;48.488;13.436;2024-01-11T08:32:39;12.40;45.70
11239;DHT22;5677;48.488;13.436;2024-01-11T08:35:08;12.40;45.70
11239;DHT22;5677;48.488;13.436;2024-01-11T08:37:35;12.50;45.60
11239;DHT22;5677;48.488;13.436;2024-01-11T08:40:02;12.60;45.40
11239;DHT22;5677;48.488;13.436;2024-01-11T08:42:31;12.60;45.20
11239;DHT22;5677;48.488;13.436;2024-01-11T08:44:58;12.70;45.10
11239;DHT22;5677;48.488;13.436;2024-01-11T08:47:29;12.70;44.90
11239;DHT22;5677;48.488;13.436;2024-01-11T08:49:56;12.80;44.70
11239;DHT22;5677;48.488;13.436;2024-01-11T08:52:23;12.90;44.60
11239;DHT22;5677;48.488;13.436;2024-01-11T08:54:49;13.00;44.50
11239;DHT22;5677;48.488;13.436;2024-01-11T08:57:16;13.00;44.30
11239;DHT22;5677;48.488;13.436;2024-01-11T08:59:44;13.10;44.20
11239;DHT22;5677;48.488;13.436;2024-01-11T09:02:11;13.20;44.10
11239;DHT22;5677;48.488;13.436;2024-01-11T09:04:38;13.20;43.90
11239;DHT22;5677;48.488;13.436;2024-01-11T09:07:05;13.30;43.80
11239;DHT22;5677;48.488;13.436;2024-01-11T09:09:31;13.30;43.70
11239;DHT22;5677;48.488;13.436;2024-01-11T09:11:58;13.30;43.60
11239;DHT22;5677;48.488;13.436;2024-01-11T09:14:25;13.30;43.50
11239;DHT22;5677;48.488;13.436;2024-01-11T09:16:53;13.30;43.50
11239;DHT22;5677;48.488;13.436;2024-01-11T09:19:20;13.30;44.10
11239;DHT22;5677;48.488;13.436;2024-01-11T09:21:47;13.30;43.60
11239;DHT22;5677;48.488;13.436;2024-01-11T09:24:14;13.30;43.60
11239;DHT22;5677;48.488;13.436;2024-01-11T09:26:40;13.30;43.70
11239;DHT22;5677;48.488;13.436;2024-01-11T09:29:07;13.20;43.60
11239;DHT22;5677;48.488;13.436;2024-01-11T09:31:34;13.20;43.80
11239;DHT22;5677;48.488;13.436;2024-01-11T09:34:02;13.20;43.90
11239;DHT22;5677;48.488;13.436;2024-01-11T09:36:29;13.20;43.90
11239;DHT22;5677;48.488;13.436;2024-01-11T09:38:55;13.10;44.00
11239;DHT22;5677;48.488;13.436;2024-01-11T09:41:22;13.10;44.10
11239;DHT22;5677;48.488;13.436;2024-01-11T09:43:52;13.00;44.00
11239;DHT22;5677;48.488;13.436;2024-01-11T09:46:20;13.00;44.20
11239;DHT22;5677;48.488;13.436;2024-01-11T09:48:49;13.00;44.20
11239;DHT22;5677;48.488;13.436;2024-01-11T09:51:18;13.00;44.10
11239;DHT22;5677;48.488;13.436;2024-01-11T09:53:46;13.00;44.20
11239;DHT22;5677;48.488;13.436;2024-01-11T09:56:13;13.00;45.00
11239;DHT22;5677;48.488;13.436;2024-01-11T09:58:45;13.00;44.50
11239;DHT22;5677;48.488;13.436;2024-01-11T10:01:14;13.00;44.60
11239;DHT22;5677;48.488;13.436;2024-01-11T10:03:40;13.00;44.60
11239;DHT22;5677;48.488;13.436;2024-01-11T10:06:08;12.90;44.60
11239;DHT22;5677;48.488;13.436;2024-01-11T10:08:37;12.90;44.70
11239;DHT22;5677;48.488;13.436;2024-01-11T10:11:04;12.90;44.60
11239;DHT22;5677;48.488;13.436;2024-01-11T10:13:31;12.90;44.70
11239;DHT22;5677;48.488;13.436;2024-01-11T10:16:08;12.90;44.60
11239;DHT22;5677;48.488;13.436;2024-01-11T10:18:36;12.90;44.70
11239;DHT22;5677;48.488;13.436;2024-01-11T10:21:03;12.90;44.70
11239;DHT22;5677;48.488;13.436;2024-01-11T10:23:33;12.90;44.70
11239;DHT22;5677;48.488;13.436;2024-01-11T10:26:01;12.90;44.80
11239;DHT22;5677;48.488;13.436;2024-01-11T10:28:28;12.80;44.80
11239;DHT22;5677;48.488;13.436;2024-01-11T10:30:55;12.80;44.80
11239;DHT22;5677;48.488;13.436;2024-01-11T10:33:23;12.80;44.90
11239;DHT22;5677;48.488;13.436;2024-01-11T10:35:50;12.80;44.90
11239;DHT22;5677;48.488;13.436;2024-01-11T10:38:17;12.80;45.00
11239;DHT22;5677;48.488;13.436;2024-01-11T10:40:44;12.80;44.90
11239;DHT22;5677;48.488;13.436;2024-01-11T10:43:15;12.80;45.00
11239;DHT22;5677;48.488;13.436;2024-01-11T10:45:44;12.80;45.00
11239;DHT22;5677;48.488;13.436;2024-01-11T10:48:14;12.80;45.00
11239;DHT22;5677;48.488;13.436;2024-01-11T10:50:42;12.80;44.90
11239;DHT22;5677;48.488;13.436;2024-01-11T10:53:19;12.80;45.00
11239;DHT22;5677;48.488;13.436;2024-01-11T10:55:50;12.80;45.00
11239;DHT22;5677;48.488;13.436;2024-01-11T10:58:19;12.80;45.00
11239;DHT22;5677;48.488;13.436;2024-01-11T11:00:47;12.80;45.10
11239;DHT22;5677;48.488;13.436;2024-01-11T11:03:16;12.80;45.20
11239;DHT22;5677;48.488;13.436;2024-01-11T11:05:45;12.80;45.20
11239;DHT22;5677;48.488;13.436;2024-01-11T11:08:16;12.80;45.20
11239;DHT22;5677;48.488;13.436;2024-01-11T11:10:45;12.80;45.20
11239;DHT22;5677;48.488;13.436;2024-01-11T11:13:14;12.80;45.20
11239;DHT22;5677;48.488;13.436;2024-01-11T11:15:45;12.80;45.20
11239;DHT22;5677;48.488;13.436;2024-01-11T11:18:13;12.80;45.20
11239;DHT22;5677;48.488;13.436;2024-01-11T11:20:40;12.80;45.20
11239;DHT22;5677;48.488;13.436;2024-01-11T11:23:08;12.80;45.20
11239;DHT22;5677;48.488;13.436;2024-01-11T11:25:36;12.80;45.20
11239;DHT22;5677;48.488;13.436;2024-01-11T11:28:04;12.80;45.10
11239;DHT22;5677;48.488;13.436;2024-01-11T11:30:31;12.80;45.10
11239;DHT22;5677;48.488;13.436;2024-01-11T11:33:08;12.80;45.20
11239;DHT22;5677;48.488;13.436;2024-01-11T11:35:35;12.80;45.20
11239;DHT22;5677;48.488;13.436;2024-01-11T11:38:02;12.80;45.20
11239;DHT22;5677;48.488;13.436;2024-01-11T11:40:32;12.80;45.20
11239;DHT22;5677;48.488;13.436;2024-01-11T11:43:02;12.80;45.20
11239;DHT22;5677;48.488;13.436;2024-01-11T11:45:31;12.80;45.20
11239;DHT22;5677;48.488;13.436;2024-01-11T11:47:59;12.80;45.20
11239;DHT22;5677;48.488;13.436;2024-01-11T11:50:26;12.80;45.30
11239;DHT22;5677;48.488;13.436;2024-01-11T11:52:56;12.80;45.20
11239;DHT22;5677;48.488;13.436;2024-01-11T11:55:24;12.80;45.10
11239;DHT22;5677;48.488;13.436;2024-01-11T11:57:51;12.80;45.10
11239;DHT22;5677;48.488;13.436;2024-01-11T12:00:19;12.90;45.10
11239;DHT22;5677;48.488;13.436;2024-01-11T12:02:46;12.90;45.10
11239;DHT22;5677;48.488;13.436;2024-01-11T12:05:16;12.90;45.00
11239;DHT22;5677;48.488;13.436;2024-01-11T12:07:43;12.90;45.00
11239;DHT22;5677;48.488;13.436;2024-01-11T12:10:11;12.90;45.00
11239;DHT22;5677;48.488;13.436;2024-01-11T12:12:38;12.90;45.00
11239;DHT22;5677;48.488;13.436;2024-01-11T12:15:06;12.90;45.00
11239;DHT22;5677;48.488;13.436;2024-01-11T12:17:34;12.90;44.90
11239;DHT22;5677;48.488;13.436;2024-01-11T12:20:01;13.00;44.90
11239;DHT22;5677;48.488;13.436;2024-01-11T12:22:30;13.00;44.80
11239;DHT22;5677;48.488;13.436;2024-01-11T12:24:57;13.00;44.80
11239;DHT22;5677;48.488;13.436;2024-01-11T12:27:23;13.10;44.80
11239;DHT22;5677;48.488;13.436;2024-01-11T12:29:50;13.10;44.60
11239;DHT22;5677;48.488;13.436;2024-01-11T12:32:17;13.10;44.60
11239;DHT22;5677;48.488;13.436;2024-01-11T12:34:44;13.00;44.60
11239;DHT22;5677;48.488;13.436;2024-01-11T12:37:11;13.10;44.60
11239;DHT22;5677;48.488;13.436;2024-01-11T12:39:39;13.10;44.60
11239;DHT22;5677;48.488;13.436;2024-01-11T12:42:06;13.10;44.50
11239;DHT22;5677;48.488;13.436;2024-01-11T12:44:34;13.10;44.50
11239;DHT22;5677;48.488;13.436;2024-01-11T12:47:04;13.10;44.50
11239;DHT22;5677;48.488;13.436;2024-01-11T12:49:31;13.10;44.40
11239;DHT22;5677;48.488;13.436;2024-01-11T12:51:59;13.20;44.40
11239;DHT22;5677;48.488;13.436;2024-01-11T12:54:25;13.10;44.40
11239;DHT22;5677;48.488;13.436;2024-01-11T12:56:54;13.20;44.40
11239;DHT22;5677;48.488;13.436;2024-01-11T12:59:25;13.20;44.40
11239;DHT22;5677;48.488;13.436;2024-01-11T13:01:52;13.10;44.40
11239;DHT22;5677;48.488;13.436;2024-01-11T13:04:19;13.20;44.40
11239;DHT22;5677;48.488;13.436;2024-01-11T13:06:46;13.20;44.40
11239;DHT22;5677;48.488;13.436;2024-01-11T13:09:13;13.20;44.20
11239;DHT22;5677;48.488;13.436;2024-01-11T13:11:40;13.20;44.20
11239;DHT22;5677;48.488;13.436;2024-01-11T13:14:08;13.20;44.30
11239;DHT22;5677;48.488;13.436;2024-01-11T13:16:40;13.20;44.20
11239;DHT22;5677;48.488;13.436;2024-01-11T13:19:06;13.10;44.20
11239;DHT22;5677;48.488;13.436;2024-01-11T13:21:33;13.10;44.30
11239;DHT22;5677;48.488;13.436;2024-01-11T13:24:00;13.10;44.50
11239;DHT22;5677;48.488;13.436;2024-01-11T13:26:27;13.00;44.50
11239;DHT22;5677;48.488;13.436;2024-01-11T13:28:53;13.00;44.70
11239;DHT22;5677;48.488;13.436;2024-01-11T13:31:21;13.00;44.80
11239;DHT22;5677;48.488;13.436;2024-01-11T13:33:48;12.90;44.80
11239;DHT22;5677;48.488;13.436;2024-01-11T13:36:15;12.90;44.90
11239;DHT22;5677;48.488;13.436;2024-01-11T13:38:42;12.90;45.00
11239;DHT22;5677;48.488;13.436;2024-01-11T13:41:09;12.90;45.00
11239;DHT22;5677;48.488;13.436;2024-01-11T13:43:35;12.90;45.00
11239;DHT22;5677;48.488;13.436;2024-01-11T13:46:02;12.80;45.00
11239;DHT22;5677;48.488;13.436;2024-01-11T13:48:31;12.80;45.10
11239;DHT22;5677;48.488;13.436;2024-01-11T13:50:58;12.80;45.10
11239;DHT22;5677;48.488;13.436;2024-01-11T13:53:25;12.80;45.10
11239;DHT22;5677;48.488;13.436;2024-01-11T13:55:51;12.80;45.20
11239;DHT22;5677;48.488;13.436;2024-01-11T13:58:18;12.80;45.20
11239;DHT22;5677;48.488;13.436;2024-01-11T14:00:45;12.80;45.20
11239;DHT22;5677;48.488;13.436;2024-01-11T14:03:12;12.80;45.20
11239;DHT22;5677;48.488;13.436;2024-01-11T14:05:40;12.80;45.30
11239;DHT22;5677;48.488;13.436;2024-01-11T14:08:07;12.80;45.40
11239;DHT22;5677;48.488;13.436;2024-01-11T14:10:34;12.80;45.40
11239;DHT22;5677;48.488;13.436;2024-01-11T14:13:01;12.70;45.40
11239;DHT22;5677;48.488;13.436;2024-01-11T14:15:28;12.70;45.40
11239;DHT22;5677;48.488;13.436;2024-01-11T14:17:56;12.70;45.40
11239;DHT22;5677;48.488;13.436;2024-01-11T14:20:23;12.70;45.40
11239;DHT22;5677;48.488;13.436;2024-01-11T14:22:51;12.70;45.50
11239;DHT22;5677;48.488;13.436;2024-01-11T14:25:19;12.70;45.50
11239;DHT22;5677;48.488;13.436;2024-01-11T14:27:47;12.70;45.50
11239;DHT22;5677;48.488;13.436;2024-01-11T14:30:14;12.70;45.50
11239;DHT22;5677;48.488;13.436;2024-01-11T14:32:41;12.70;45.50
11239;DHT22;5677;48.488;13.436;2024-01-11T14:35:08;12.70;45.60
11239;DHT22;5677;48.488;13.436;2024-01-11T14:37:37;12.70;45.60
11239;DHT22;5677;48.488;13.436;2024-01-11T14:40:07;12.70;45.70
11239;DHT22;5677;48.488;13.436;2024-01-11T14:42:36;12.70;45.70
11239;DHT22;5677;48.488;13.436;2024-01-11T14:45:03;12.60;45.60
11239;DHT22;5677;48.488;13.436;2024-01-11T14:47:30;12.60;45.70
11239;DHT22;5677;48.488;13.436;2024-01-11T14:49:57;12.60;45.70
11239;DHT22;5677;48.488;13.436;2024-01-11T14:52:25;12.60;45.70
11239;DHT22;5677;48.488;13.436;2024-01-11T14:54:52;12.60;45.60
11239;DHT22;5677;48.488;13.436;2024-01-11T14:57:20;12.60;45.60
11239;DHT22;5677;48.488;13.436;2024-01-11T14:59:47;12.60;45.70
11239;DHT22;5677;48.488;13.436;2024-01-11T15:02:13;12.60;45.60
11239;DHT22;5677;48.488;13.436;2024-01-11T15:04:40;12.60;46.30
11239;DHT22;5677;48.488;13.436;2024-01-11T15:07:07;12.60;45.70
11239;DHT22;5677;48.488;13.436;2024-01-11T15:09:34;12.60;45.80
11239;DHT22;5677;48.488;13.436;2024-01-11T15:12:01;12.60;45.80
11239;DHT22;5677;48.488;13.436;2024-01-11T15:14:29;12.60;45.70
11239;DHT22;5677;48.488;13.436;2024-01-11T15:16:56;12.60;45.70
11239;DHT22;5677;48.488;13.436;2024-01-11T15:19:23;12.60;45.80
11239;DHT22;5677;48.488;13.436;2024-01-11T15:21:51;12.60;45.80
11239;DHT22;5677;48.488;13.436;2024-01-11T15:24:17;12.60;45.80
11239;DHT22;5677;48.488;13.436;2024-01-11T15:26:44;12.60;45.80
11239;DHT22;5677;48.488;13.436;2024-01-11T15:29:11;12.60;45.80
11239;DHT22;5677;48.488;13.436;2024-01-11T15:31:39;12.50;45.80